Blue Mound, Texas
Current Conditions -  °F | °C
As of 3:32 PM on Sunday 21 Dec 2014 (Local Time) from KAFW Reporting Station
Haze Haze  
Wind Chill: 51°   Ceiling: 1500
Heat Index: 51°   Visibility: 6mi
Dew Point: 46°   Wind: 12mph
Humidity: 83%   Direction: 170°S
Pressure: 29.84"   Gusts: NA
Location:  32.9103°N, 97.3722°W
Report Text: KAFW 212132Z 17010KT 6SM HZ OVC015 11/08 A2984 RMK AO2 T01060078 $
Loading
Personal Weather Stations






























Interactive Weather Map New forecast layout! Learn more

10-Day Weather Forecast

Advertisements
Track Severe Weather on mobile